sensor_id;sensor_type;location;lat;lon;timestamp;pressure;altitude;pressure_sealevel;temperature;humidity
65614;BME280;52283;49.292;10.572;2023-12-22T00:02:02;94935.72;;;2.58;100.00
65614;BME280;52283;49.292;10.572;2023-12-22T00:04:28;94933.25;;;2.65;100.00
65614;BME280;52283;49.292;10.572;2023-12-22T00:06:54;94920.22;;;2.66;100.00
65614;BME280;52283;49.292;10.572;2023-12-22T00:09:22;94904.09;;;2.53;100.00
65614;BME280;52283;49.292;10.572;2023-12-22T00:11:49;94896.50;;;2.48;100.00
65614;BME280;52283;49.292;10.572;2023-12-22T00:14:15;94898.22;;;2.45;100.00
65614;BME280;52283;49.292;10.572;2023-12-22T00:16:42;94907.34;;;2.52;100.00
65614;BME280;52283;49.292;10.572;2023-12-22T00:19:08;94884.22;;;2.49;100.00
65614;BME280;52283;49.292;10.572;2023-12-22T00:21:35;94890.81;;;2.57;100.00
65614;BME280;52283;49.292;10.572;2023-12-22T00:24:01;94888.53;;;2.50;100.00
65614;BME280;52283;49.292;10.572;2023-12-22T00:26:29;94891.63;;;2.63;100.00
65614;BME280;52283;49.292;10.572;2023-12-22T00:28:56;94897.84;;;2.58;100.00
65614;BME280;52283;49.292;10.572;2023-12-22T00:31:22;94918.19;;;2.61;100.00
65614;BME280;52283;49.292;10.572;2023-12-22T00:33:49;94909.03;;;2.49;100.00
65614;BME280;52283;49.292;10.572;2023-12-22T00:36:15;94915.53;;;2.46;100.00
65614;BME280;52283;49.292;10.572;2023-12-22T00:38:43;94937.44;;;2.55;100.00
65614;BME280;52283;49.292;10.572;2023-12-22T00:41:09;94934.69;;;2.55;100.00
65614;BME280;52283;49.292;10.572;2023-12-22T00:43:37;94938.16;;;2.50;100.00
65614;BME280;52283;49.292;10.572;2023-12-22T00:46:04;94937.19;;;2.53;100.00
65614;BME280;52283;49.292;10.572;2023-12-22T00:48:30;94916.63;;;2.54;100.00
65614;BME280;52283;49.292;10.572;2023-12-22T00:50:57;94905.81;;;2.51;100.00
65614;BME280;52283;49.292;10.572;2023-12-22T00:53:23;94916.66;;;2.60;100.00
65614;BME280;52283;49.292;10.572;2023-12-22T00:55:49;94915.81;;;2.48;100.00
65614;BME280;52283;49.292;10.572;2023-12-22T00:58:16;94935.66;;;2.52;100.00
65614;BME280;52283;49.292;10.572;2023-12-22T01:00:44;94925.88;;;2.51;100.00
65614;BME280;52283;49.292;10.572;2023-12-22T01:03:10;94898.22;;;2.45;100.00
65614;BME280;52283;49.292;10.572;2023-12-22T01:05:37;94892.56;;;2.55;100.00
65614;BME280;52283;49.292;10.572;2023-12-22T01:08:04;94913.13;;;2.54;100.00
65614;BME280;52283;49.292;10.572;2023-12-22T01:10:31;94910.84;;;2.52;100.00
65614;BME280;52283;49.292;10.572;2023-12-22T01:12:57;94905.38;;;2.58;100.00
65614;BME280;52283;49.292;10.572;2023-12-22T01:15:24;94907.91;;;2.61;100.00
65614;BME280;52283;49.292;10.572;2023-12-22T01:17:52;94910.94;;;2.63;100.00
65614;BME280;52283;49.292;10.572;2023-12-22T01:20:18;94918.91;;;2.56;100.00
65614;BME280;52283;49.292;10.572;2023-12-22T01:22:45;94929.88;;;2.50;100.00
65614;BME280;52283;49.292;10.572;2023-12-22T01:25:11;94929.88;;;2.50;100.00
65614;BME280;52283;49.292;10.572;2023-12-22T01:27:37;94947.06;;;2.39;100.00
65614;BME280;52283;49.292;10.572;2023-12-22T01:30:05;94921.66;;;2.56;100.00
65614;BME280;52283;49.292;10.572;2023-12-22T01:32:32;94941.09;;;2.47;100.00
65614;BME280;52283;49.292;10.572;2023-12-22T01:35:02;94925.19;;;2.30;100.00
65614;BME280;52283;49.292;10.572;2023-12-22T01:37:34;94919.19;;;2.32;100.00
65614;BME280;52283;49.292;10.572;2023-12-22T01:40:01;94917.38;;;2.29;100.00
65614;BME280;52283;49.292;10.572;2023-12-22T01:42:27;94925.00;;;2.39;100.00
65614;BME280;52283;49.292;10.572;2023-12-22T01:44:54;94929.31;;;2.46;100.00
65614;BME280;52283;49.292;10.572;2023-12-22T01:47:20;94945.09;;;2.45;100.00
65614;BME280;52283;49.292;10.572;2023-12-22T01:49:46;94930.28;;;2.43;100.00
65614;BME280;52283;49.292;10.572;2023-12-22T01:52:15;94933.84;;;2.49;100.00
65614;BME280;52283;49.292;10.572;2023-12-22T01:54:42;94930.06;;;2.47;100.00
65614;BME280;52283;49.292;10.572;2023-12-22T01:57:09;94933.41;;;2.51;100.00
65614;BME280;52283;49.292;10.572;2023-12-22T01:59:40;94950.22;;;2.53;100.00
65614;BME280;52283;49.292;10.572;2023-12-22T02:02:07;94948.53;;;2.61;100.00
65614;BME280;52283;49.292;10.572;2023-12-22T02:04:33;94936.72;;;2.60;100.00
65614;BME280;52283;49.292;10.572;2023-12-22T02:07:02;94940.72;;;2.59;100.00
65614;BME280;52283;49.292;10.572;2023-12-22T02:09:29;94939.53;;;2.66;100.00
65614;BME280;52283;49.292;10.572;2023-12-22T02:11:56;94933.03;;;2.69;100.00
65614;BME280;52283;49.292;10.572;2023-12-22T02:14:23;94925.75;;;2.66;100.00
65614;BME280;52283;49.292;10.572;2023-12-22T02:16:52;94932.13;;;2.78;100.00
65614;BME280;52283;49.292;10.572;2023-12-22T02:19:27;94932.13;;;2.78;100.00
65614;BME280;52283;49.292;10.572;2023-12-22T02:22:03;94940.16;;;2.81;100.00
65614;BME280;52283;49.292;10.572;2023-12-22T02:24:31;94935.09;;;2.74;100.00
65614;BME280;52283;49.292;10.572;2023-12-22T02:27:03;94924.72;;;2.63;100.00
65614;BME280;52283;49.292;10.572;2023-12-22T02:29:32;94919.19;;;2.63;100.00
65614;BME280;52283;49.292;10.572;2023-12-22T02:32:05;94922.56;;;2.47;100.00
65614;BME280;52283;49.292;10.572;2023-12-22T02:34:35;94933.66;;;2.53;100.00
65614;BME280;52283;49.292;10.572;2023-12-22T02:37:05;94937.81;;;2.42;100.00
65614;BME280;52283;49.292;10.572;2023-12-22T02:39:35;94916.25;;;2.41;100.00
65614;BME280;52283;49.292;10.572;2023-12-22T02:42:03;94923.53;;;2.44;100.00
65614;BME280;52283;49.292;10.572;2023-12-22T02:44:30;94924.63;;;2.52;100.00
65614;BME280;52283;49.292;10.572;2023-12-22T02:46:57;94907.34;;;2.52;100.00
65614;BME280;52283;49.292;10.572;2023-12-22T02:49:23;94904.28;;;2.50;100.00
65614;BME280;52283;49.292;10.572;2023-12-22T02:51:50;94907.03;;;2.50;100.00
65614;BME280;52283;49.292;10.572;2023-12-22T02:54:16;94911.13;;;2.54;100.00
65614;BME280;52283;49.292;10.572;2023-12-22T02:56:46;94910.66;;;2.61;100.00
65614;BME280;52283;49.292;10.572;2023-12-22T02:59:13;94907.09;;;2.55;100.00
65614;BME280;52283;49.292;10.572;2023-12-22T03:01:39;94911.38;;;2.56;100.00
65614;BME280;52283;49.292;10.572;2023-12-22T03:04:06;94909.19;;;2.66;100.00
65614;BME280;52283;49.292;10.572;2023-12-22T03:06:32;94926.94;;;2.59;100.00
65614;BME280;52283;49.292;10.572;2023-12-22T03:08:58;94924.97;;;2.65;100.00
65614;BME280;52283;49.292;10.572;2023-12-22T03:11:25;94930.47;;;2.60;100.00
65614;BME280;52283;49.292;10.572;2023-12-22T03:13:53;94950.56;;;2.66;100.00
65614;BME280;52283;49.292;10.572;2023-12-22T03:16:19;94930.94;;;2.58;100.00
65614;BME280;52283;49.292;10.572;2023-12-22T03:18:46;94962.75;;;2.54;100.00
65614;BME280;52283;49.292;10.572;2023-12-22T03:21:16;94979.03;;;2.52;100.00
65614;BME280;52283;49.292;10.572;2023-12-22T03:23:43;94990.53;;;2.50;100.00
65614;BME280;52283;49.292;10.572;2023-12-22T03:26:09;94963.34;;;2.37;100.00
65614;BME280;52283;49.292;10.572;2023-12-22T03:28:36;94992.44;;;2.18;100.00
65614;BME280;52283;49.292;10.572;2023-12-22T03:31:04;95023.09;;;2.05;100.00
65614;BME280;52283;49.292;10.572;2023-12-22T03:33:32;95001.31;;;2.07;100.00
65614;BME280;52283;49.292;10.572;2023-12-22T03:35:58;95003.47;;;1.98;100.00
65614;BME280;52283;49.292;10.572;2023-12-22T03:38:24;95000.09;;;1.88;100.00
65614;BME280;52283;49.292;10.572;2023-12-22T03:40:51;94994.78;;;1.84;100.00
65614;BME280;52283;49.292;10.572;2023-12-22T03:43:17;94981.84;;;1.91;100.00
65614;BME280;52283;49.292;10.572;2023-12-22T03:45:44;94976.25;;;1.85;100.00
65614;BME280;52283;49.292;10.572;2023-12-22T03:48:12;94977.84;;;1.92;100.00
65614;BME280;52283;49.292;10.572;2023-12-22T03:50:38;94974.19;;;1.80;100.00
65614;BME280;52283;49.292;10.572;2023-12-22T03:53:04;94973.75;;;1.87;100.00
65614;BME280;52283;49.292;10.572;2023-12-22T03:55:31;94959.88;;;1.96;100.00
65614;BME280;52283;49.292;10.572;2023-12-22T03:57:57;94975.16;;;1.97;100.00
65614;BME280;52283;49.292;10.572;2023-12-22T04:00:24;94989.00;;;2.03;100.00
65614;BME280;52283;49.292;10.572;2023-12-22T04:02:50;94987.22;;;2.00;100.00
65614;BME280;52283;49.292;10.572;2023-12-22T04:05:18;94976.19;;;2.00;100.00
65614;BME280;52283;49.292;10.572;2023-12-22T04:07:45;94989.13;;;2.14;100.00
65614;BME280;52283;49.292;10.572;2023-12-22T04:10:11;94988.59;;;2.10;100.00
65614;BME280;52283;49.292;10.572;2023-12-22T04:12:38;94983.63;;;2.14;100.00
65614;BME280;52283;49.292;10.572;2023-12-22T04:15:06;94982.59;;;2.11;100.00
65614;BME280;52283;49.292;10.572;2023-12-22T04:17:32;94984.59;;;2.11;100.00
65614;BME280;52283;49.292;10.572;2023-12-22T04:19:59;95002.91;;;2.14;100.00
65614;BME280;52283;49.292;10.572;2023-12-22T04:22:27;95015.41;;;2.09;100.00
65614;BME280;52283;49.292;10.572;2023-12-22T04:24:53;94991.34;;;2.10;100.00
65614;BME280;52283;49.292;10.572;2023-12-22T04:27:19;94976.38;;;2.17;100.00
65614;BME280;52283;49.292;10.572;2023-12-22T04:29:46;94988.22;;;2.23;100.00
65614;BME280;52283;49.292;10.572;2023-12-22T04:32:12;94968.81;;;2.11;100.00
65614;BME280;52283;49.292;10.572;2023-12-22T04:34:39;94972.97;;;2.27;100.00
65614;BME280;52283;49.292;10.572;2023-12-22T04:37:05;94980.75;;;2.29;100.00
65614;BME280;52283;49.292;10.572;2023-12-22T04:39:33;94971.41;;;2.21;100.00
65614;BME280;52283;49.292;10.572;2023-12-22T04:41:59;94986.56;;;2.31;100.00
65614;BME280;52283;49.292;10.572;2023-12-22T04:44:26;94989.19;;;2.20;100.00
65614;BME280;52283;49.292;10.572;2023-12-22T04:46:52;94976.16;;;2.20;100.00
65614;BME280;52283;49.292;10.572;2023-12-22T04:49:19;94986.16;;;2.18;100.00
65614;BME280;52283;49.292;10.572;2023-12-22T04:51:45;94974.38;;;2.17;100.00
65614;BME280;52283;49.292;10.572;2023-12-22T04:54:12;94987.75;;;2.04;100.00
65614;BME280;52283;49.292;10.572;2023-12-22T04:56:39;94991.25;;;2.04;100.00
65614;BME280;52283;49.292;10.572;2023-12-22T04:59:06;94991.19;;;1.99;100.00
65614;BME280;52283;49.292;10.572;2023-12-22T05:01:33;94989.84;;;2.09;100.00
65614;BME280;52283;49.292;10.572;2023-12-22T05:03:59;95006.22;;;1.98;100.00
65614;BME280;52283;49.292;10.572;2023-12-22T05:06:27;95007.47;;;1.97;100.00
65614;BME280;52283;49.292;10.572;2023-12-22T05:08:54;95022.41;;;1.90;100.00
65614;BME280;52283;49.292;10.572;2023-12-22T05:11:21;95033.81;;;1.83;100.00
65614;BME280;52283;49.292;10.572;2023-12-22T05:13:49;95027.69;;;1.73;100.00
65614;BME280;52283;49.292;10.572;2023-12-22T05:16:15;95037.25;;;1.78;100.00
65614;BME280;52283;49.292;10.572;2023-12-22T05:18:42;95042.31;;;1.65;100.00
65614;BME280;52283;49.292;10.572;2023-12-22T05:21:11;95035.28;;;1.64;100.00
65614;BME280;52283;49.292;10.572;2023-12-22T05:23:38;95039.38;;;1.68;100.00
65614;BME280;52283;49.292;10.572;2023-12-22T05:26:04;95048.22;;;1.58;100.00
65614;BME280;52283;49.292;10.572;2023-12-22T05:28:31;95025.19;;;1.55;100.00
65614;BME280;52283;49.292;10.572;2023-12-22T05:30:59;95026.75;;;1.62;100.00
65614;BME280;52283;49.292;10.572;2023-12-22T05:33:26;95028.28;;;1.63;100.00
65614;BME280;52283;49.292;10.572;2023-12-22T05:35:52;95016.19;;;1.75;100.00
65614;BME280;52283;49.292;10.572;2023-12-22T05:38:19;95017.44;;;1.74;100.00
65614;BME280;52283;49.292;10.572;2023-12-22T05:40:45;95021.69;;;1.75;100.00
65614;BME280;52283;49.292;10.572;2023-12-22T05:43:13;95014.16;;;1.90;100.00
65614;BME280;52283;49.292;10.572;2023-12-22T05:45:39;95023.50;;;2.19;100.00
65614;BME280;52283;49.292;10.572;2023-12-22T05:48:08;95022.47;;;2.36;100.00
65614;BME280;52283;49.292;10.572;2023-12-22T05:50:34;95035.41;;;2.51;100.00
65614;BME280;52283;49.292;10.572;2023-12-22T05:53:01;95022.22;;;2.60;100.00
65614;BME280;52283;49.292;10.572;2023-12-22T05:55:27;95029.31;;;2.67;100.00
65614;BME280;52283;49.292;10.572;2023-12-22T05:57:54;95012.56;;;2.96;100.00
65614;BME280;52283;49.292;10.572;2023-12-22T06:00:21;95000.53;;;2.99;100.00
65614;BME280;52283;49.292;10.572;2023-12-22T06:02:47;95023.75;;;3.13;100.00
65614;BME280;52283;49.292;10.572;2023-12-22T06:05:15;94995.16;;;3.16;100.00
65614;BME280;52283;49.292;10.572;2023-12-22T06:07:42;94992.47;;;3.27;100.00
65614;BME280;52283;49.292;10.572;2023-12-22T06:10:09;94974.38;;;3.26;100.00
65614;BME280;52283;49.292;10.572;2023-12-22T06:12:35;94974.41;;;3.32;100.00
65614;BME280;52283;49.292;10.572;2023-12-22T06:15:02;94981.41;;;3.27;100.00
65614;BME280;52283;49.292;10.572;2023-12-22T06:17:29;94982.44;;;3.30;100.00
65614;BME280;52283;49.292;10.572;2023-12-22T06:19:55;94997.34;;;3.44;100.00
65614;BME280;52283;49.292;10.572;2023-12-22T06:22:23;95007.69;;;3.49;100.00
65614;BME280;52283;49.292;10.572;2023-12-22T06:24:49;95015.97;;;3.49;100.00
65614;BME280;52283;49.292;10.572;2023-12-22T06:27:16;95027.28;;;3.51;100.00
65614;BME280;52283;49.292;10.572;2023-12-22T06:29:43;95033.94;;;3.70;100.00
65614;BME280;52283;49.292;10.572;2023-12-22T06:32:09;95029.88;;;3.60;100.00
65614;BME280;52283;49.292;10.572;2023-12-22T06:34:37;95047.69;;;3.59;100.00
65614;BME280;52283;49.292;10.572;2023-12-22T06:37:03;95023.53;;;3.54;100.00
65614;BME280;52283;49.292;10.572;2023-12-22T06:39:34;95037.84;;;3.52;100.00
65614;BME280;52283;49.292;10.572;2023-12-22T06:42:00;95038.81;;;3.49;100.00
65614;BME280;52283;49.292;10.572;2023-12-22T06:44:27;95040.03;;;3.43;100.00
65614;BME280;52283;49.292;10.572;2023-12-22T06:46:53;95038.22;;;3.34;100.00
65614;BME280;52283;49.292;10.572;2023-12-22T06:49:19;95048.22;;;3.31;100.00
65614;BME280;52283;49.292;10.572;2023-12-22T06:51:46;95038.88;;;3.23;100.00
65614;BME280;52283;49.292;10.572;2023-12-22T06:54:12;95040.56;;;3.15;100.00
65614;BME280;52283;49.292;10.572;2023-12-22T06:56:40;95046.16;;;3.26;100.00
65614;BME280;52283;49.292;10.572;2023-12-22T06:59:07;95057.16;;;3.21;100.00
65614;BME280;52283;49.292;10.572;2023-12-22T07:01:37;95049.41;;;3.25;100.00
65614;BME280;52283;49.292;10.572;2023-12-22T07:04:04;95059.25;;;3.31;100.00
65614;BME280;52283;49.292;10.572;2023-12-22T07:06:33;95078.66;;;3.37;100.00
65614;BME280;52283;49.292;10.572;2023-12-22T07:09:27;95079.97;;;3.47;100.00
65614;BME280;52283;49.292;10.572;2023-12-22T07:11:56;95075.66;;;3.41;100.00
65614;BME280;52283;49.292;10.572;2023-12-22T07:14:23;95078.69;;;3.43;100.00
65614;BME280;52283;49.292;10.572;2023-12-22T07:16:50;95070.19;;;3.46;100.00
65614;BME280;52283;49.292;10.572;2023-12-22T07:19:16;95068.53;;;3.60;100.00
65614;BME280;52283;49.292;10.572;2023-12-22T07:21:43;95068.75;;;3.56;100.00
65614;BME280;52283;49.292;10.572;2023-12-22T07:24:09;95068.41;;;3.43;100.00
65614;BME280;52283;49.292;10.572;2023-12-22T07:26:36;95077.47;;;3.49;100.00
65614;BME280;52283;49.292;10.572;2023-12-22T07:29:03;95078.91;;;3.39;100.00
65614;BME280;52283;49.292;10.572;2023-12-22T07:31:30;95087.47;;;3.41;100.00
65614;BME280;52283;49.292;10.572;2023-12-22T07:33:56;95089.97;;;3.39;100.00
65614;BME280;52283;49.292;10.572;2023-12-22T07:36:23;95105.78;;;3.39;100.00
65614;BME280;52283;49.292;10.572;2023-12-22T07:38:49;95099.22;;;3.36;100.00
65614;BME280;52283;49.292;10.572;2023-12-22T07:41:16;95099.28;;;3.42;100.00
65614;BME280;52283;49.292;10.572;2023-12-22T07:43:42;95104.25;;;3.38;100.00
65614;BME280;52283;49.292;10.572;2023-12-22T07:46:16;95122.69;;;3.52;100.00
65614;BME280;52283;49.292;10.572;2023-12-22T07:48:43;95100.09;;;3.53;100.00
65614;BME280;52283;49.292;10.572;2023-12-22T07:51:10;95103.44;;;3.57;100.00
65614;BME280;52283;49.292;10.572;2023-12-22T07:53:37;95112.50;;;3.63;100.00
65614;BME280;52283;49.292;10.572;2023-12-22T07:56:04;95114.81;;;3.71;100.00
65614;BME280;52283;49.292;10.572;2023-12-22T07:58:31;95106.59;;;3.76;100.00
65614;BME280;52283;49.292;10.572;2023-12-22T08:00:58;95111.06;;;3.74;100.00
65614;BME280;52283;49.292;10.572;2023-12-22T08:03:26;95123.25;;;3.87;100.00
65614;BME280;52283;49.292;10.572;2023-12-22T08:05:53;95106.84;;;3.78;100.00
65614;BME280;52283;49.292;10.572;2023-12-22T08:08:19;95100.41;;;3.92;100.00
65614;BME280;52283;49.292;10.572;2023-12-22T08:10:46;95090.69;;;4.03;100.00
65614;BME280;52283;49.292;10.572;2023-12-22T08:13:13;95111.34;;;4.13;100.00
65614;BME280;52283;49.292;10.572;2023-12-22T08:15:40;95097.84;;;4.26;100.00
65614;BME280;52283;49.292;10.572;2023-12-22T08:18:06;95114.94;;;4.24;100.00
65614;BME280;52283;49.292;10.572;2023-12-22T08:20:34;95121.50;;;4.27;100.00
65614;BME280;52283;49.292;10.572;2023-12-22T08:23:01;95111.16;;;4.22;100.00
65614;BME280;52283;49.292;10.572;2023-12-22T08:25:27;95123.72;;;4.17;100.00
65614;BME280;52283;49.292;10.572;2023-12-22T08:27:54;95124.47;;;4.18;100.00
65614;BME280;52283;49.292;10.572;2023-12-22T08:30:20;95153.06;;;4.15;100.00
65614;BME280;52283;49.292;10.572;2023-12-22T08:32:47;95161.69;;;4.22;100.00
65614;BME280;52283;49.292;10.572;2023-12-22T08:35:13;95177.09;;;4.35;100.00
65614;BME280;52283;49.292;10.572;2023-12-22T08:37:41;95163.53;;;4.37;100.00
65614;BME280;52283;49.292;10.572;2023-12-22T08:40:08;95150.91;;;4.30;100.00
65614;BME280;52283;49.292;10.572;2023-12-22T08:42:35;95163.84;;;4.44;100.00
65614;BME280;52283;49.292;10.572;2023-12-22T08:45:01;95163.66;;;4.59;100.00
65614;BME280;52283;49.292;10.572;2023-12-22T08:47:30;95138.78;;;4.65;100.00
65614;BME280;52283;49.292;10.572;2023-12-22T08:49:57;95159.69;;;4.71;100.00
65614;BME280;52283;49.292;10.572;2023-12-22T08:52:23;95166.50;;;4.76;100.00
65614;BME280;52283;49.292;10.572;2023-12-22T08:54:51;95175.69;;;4.50;100.00
65614;BME280;52283;49.292;10.572;2023-12-22T08:57:17;95165.75;;;4.33;100.00
65614;BME280;52283;49.292;10.572;2023-12-22T08:59:44;95178.91;;;4.43;100.00
65614;BME280;52283;49.292;10.572;2023-12-22T09:02:11;95166.84;;;4.46;100.00
65614;BME280;52283;49.292;10.572;2023-12-22T09:04:37;95198.28;;;4.43;100.00
65614;BME280;52283;49.292;10.572;2023-12-22T09:07:04;95168.13;;;4.45;100.00
65614;BME280;52283;49.292;10.572;2023-12-22T09:09:31;95156.81;;;4.49;100.00
65614;BME280;52283;49.292;10.572;2023-12-22T09:11:58;95153.13;;;4.63;100.00
65614;BME280;52283;49.292;10.572;2023-12-22T09:14:25;95143.25;;;4.51;100.00
65614;BME280;52283;49.292;10.572;2023-12-22T09:16:51;95149.53;;;4.51;100.00
65614;BME280;52283;49.292;10.572;2023-12-22T09:19:18;95156.22;;;4.82;100.00
65614;BME280;52283;49.292;10.572;2023-12-22T09:21:45;95155.69;;;4.78;100.00
65614;BME280;52283;49.292;10.572;2023-12-22T09:24:11;95154.72;;;4.86;100.00
65614;BME280;52283;49.292;10.572;2023-12-22T09:26:38;95152.72;;;4.87;100.00
65614;BME280;52283;49.292;10.572;2023-12-22T09:29:06;95147.69;;;4.91;100.00
65614;BME280;52283;49.292;10.572;2023-12-22T09:31:32;95159.28;;;4.95;100.00
65614;BME280;52283;49.292;10.572;2023-12-22T09:33:59;95130.59;;;4.98;100.00
65614;BME280;52283;49.292;10.572;2023-12-22T09:36:25;95125.09;;;5.04;100.00
65614;BME280;52283;49.292;10.572;2023-12-22T09:38:52;95136.94;;;5.10;100.00
65614;BME280;52283;49.292;10.572;2023-12-22T09:41:18;95128.38;;;5.08;100.00
65614;BME280;52283;49.292;10.572;2023-12-22T09:43:49;95114.06;;;5.20;100.00
65614;BME280;52283;49.292;10.572;2023-12-22T09:46:18;95123.41;;;5.29;100.00
65614;BME280;52283;49.292;10.572;2023-12-22T09:48:45;95134.97;;;5.33;100.00
65614;BME280;52283;49.292;10.572;2023-12-22T09:51:13;95139.78;;;5.38;100.00
65614;BME280;52283;49.292;10.572;2023-12-22T09:53:40;95138.75;;;5.35;100.00
65614;BME280;52283;49.292;10.572;2023-12-22T09:56:07;95136.78;;;5.41;100.00
65614;BME280;52283;49.292;10.572;2023-12-22T09:58:34;95156.16;;;5.53;100.00
65614;BME280;52283;49.292;10.572;2023-12-22T10:01:04;95144.84;;;5.45;100.00
65614;BME280;52283;49.292;10.572;2023-12-22T10:03:32;95157.19;;;5.44;100.00
65614;BME280;52283;49.292;10.572;2023-12-22T10:05:59;95156.94;;;5.47;100.00
65614;BME280;52283;49.292;10.572;2023-12-22T10:08:26;95159.69;;;5.42;100.00
65614;BME280;52283;49.292;10.572;2023-12-22T10:10:54;95158.66;;;5.39;100.00
65614;BME280;52283;49.292;10.572;2023-12-22T10:13:21;95139.00;;;5.37;100.00
65614;BME280;52283;49.292;10.572;2023-12-22T10:15:47;95120.63;;;5.29;100.00
65614;BME280;52283;49.292;10.572;2023-12-22T10:18:15;95166.44;;;5.24;100.00
65614;BME280;52283;49.292;10.572;2023-12-22T10:20:44;95147.78;;;5.13;100.00
65614;BME280;52283;49.292;10.572;2023-12-22T10:23:12;95155.81;;;5.00;100.00
65614;BME280;52283;49.292;10.572;2023-12-22T10:25:40;95147.69;;;4.85;100.00
65614;BME280;52283;49.292;10.572;2023-12-22T10:28:10;95142.06;;;4.63;100.00
65614;BME280;52283;49.292;10.572;2023-12-22T10:30:37;95151.88;;;4.64;100.00
65614;BME280;52283;49.292;10.572;2023-12-22T10:33:04;95158.09;;;4.53;100.00
65614;BME280;52283;49.292;10.572;2023-12-22T10:35:30;95149.50;;;4.46;100.00
65614;BME280;52283;49.292;10.572;2023-12-22T10:37:58;95152.50;;;4.42;100.00
65614;BME280;52283;49.292;10.572;2023-12-22T10:40:25;95143.97;;;4.46;100.00
65614;BME280;52283;49.292;10.572;2023-12-22T10:42:52;95135.50;;;4.61;100.00
65614;BME280;52283;49.292;10.572;2023-12-22T10:45:19;95125.63;;;4.48;100.00
65614;BME280;52283;49.292;10.572;2023-12-22T10:47:48;95121.38;;;4.53;100.00
65614;BME280;52283;49.292;10.572;2023-12-22T10:50:16;95102.72;;;4.42;100.00
65614;BME280;52283;49.292;10.572;2023-12-22T10:52:49;95103.50;;;4.54;100.00
65614;BME280;52283;49.292;10.572;2023-12-22T10:55:17;95114.38;;;4.63;100.00
65614;BME280;52283;49.292;10.572;2023-12-22T10:57:45;95097.53;;;4.67;100.00
65614;BME280;52283;49.292;10.572;2023-12-22T11:00:13;95094.28;;;4.74;100.00
65614;BME280;52283;49.292;10.572;2023-12-22T11:02:42;95076.94;;;4.79;100.00
65614;BME280;52283;49.292;10.572;2023-12-22T11:05:10;95078.75;;;4.87;100.00
65614;BME280;52283;49.292;10.572;2023-12-22T11:07:37;95063.91;;;4.90;100.00
65614;BME280;52283;49.292;10.572;2023-12-22T11:10:06;95065.44;;;5.03;100.00
65614;BME280;52283;49.292;10.572;2023-12-22T11:12:35;95079.28;;;5.08;100.00
65614;BME280;52283;49.292;10.572;2023-12-22T11:15:03;95073.00;;;5.08;100.00
65614;BME280;52283;49.292;10.572;2023-12-22T11:17:32;95065.69;;;5.10;100.00
65614;BME280;52283;49.292;10.572;2023-12-22T11:20:01;95083.09;;;5.28;100.00
65614;BME280;52283;49.292;10.572;2023-12-22T11:22:28;95059.91;;;5.08;100.00
65614;BME280;52283;49.292;10.572;2023-12-22T11:24:58;95075.00;;;5.02;100.00
65614;BME280;52283;49.292;10.572;2023-12-22T11:27:27;95080.00;;;4.92;100.00
65614;BME280;52283;49.292;10.572;2023-12-22T11:29:56;95067.22;;;5.06;100.00
65614;BME280;52283;49.292;10.572;2023-12-22T11:32:25;95079.28;;;5.03;100.00
65614;BME280;52283;49.292;10.572;2023-12-22T11:34:53;95049.81;;;4.94;100.00
65614;BME280;52283;49.292;10.572;2023-12-22T11:37:20;95067.44;;;4.97;100.00
65614;BME280;52283;49.292;10.572;2023-12-22T11:39:47;95067.97;;;5.01;100.00
65614;BME280;52283;49.292;10.572;2023-12-22T11:42:17;95054.38;;;5.14;100.00
65614;BME280;52283;49.292;10.572;2023-12-22T11:44:44;95030.22;;;5.20;100.00
65614;BME280;52283;49.292;10.572;2023-12-22T11:47:13;95051.13;;;5.27;100.00
65614;BME280;52283;49.292;10.572;2023-12-22T11:49:41;95043.34;;;5.42;100.00
65614;BME280;52283;49.292;10.572;2023-12-22T11:52:11;95050.09;;;5.41;100.00
65614;BME280;52283;49.292;10.572;2023-12-22T11:54:45;95022.91;;;5.39;100.00
65614;BME280;52283;49.292;10.572;2023-12-22T11:57:32;95022.69;;;5.43;100.00
65614;BME280;52283;49.292;10.572;2023-12-22T12:00:03;95014.63;;;5.45;100.00
65614;BME280;52283;49.292;10.572;2023-12-22T12:02:33;95010.84;;;5.48;100.00
65614;BME280;52283;49.292;10.572;2023-12-22T12:05:02;95037.25;;;5.60;100.00
65614;BME280;52283;49.292;10.572;2023-12-22T12:07:40;95000.25;;;5.58;100.00
65614;BME280;52283;49.292;10.572;2023-12-22T12:10:07;95008.78;;;5.71;100.00
65614;BME280;52283;49.292;10.572;2023-12-22T12:12:34;95002.75;;;5.56;100.00
65614;BME280;52283;49.292;10.572;2023-12-22T12:15:07;94987.91;;;5.64;100.00
65614;BME280;52283;49.292;10.572;2023-12-22T12:17:39;95003.78;;;5.64;100.00
65614;BME280;52283;49.292;10.572;2023-12-22T12:20:07;94991.16;;;5.68;100.00
65614;BME280;52283;49.292;10.572;2023-12-22T12:22:34;94983.09;;;5.70;100.00
65614;BME280;52283;49.292;10.572;2023-12-22T12:25:04;94960.69;;;5.68;100.00
65614;BME280;52283;49.292;10.572;2023-12-22T12:27:34;94988.41;;;5.68;100.00
65614;BME280;52283;49.292;10.572;2023-12-22T12:30:07;94970.00;;;5.71;100.00
65614;BME280;52283;49.292;10.572;2023-12-22T12:32:35;94980.31;;;5.70;100.00
65614;BME280;52283;49.292;10.572;2023-12-22T12:35:04;94979.03;;;5.77;100.00
65614;BME280;52283;49.292;10.572;2023-12-22T12:37:31;94973.25;;;5.80;100.00
65614;BME280;52283;49.292;10.572;2023-12-22T12:39:58;94959.13;;;5.84;100.00
65614;BME280;52283;49.292;10.572;2023-12-22T12:42:28;94943.00;;;5.82;100.00
65614;BME280;52283;49.292;10.572;2023-12-22T12:44:55;94932.16;;;5.85;100.00
65614;BME280;52283;49.292;10.572;2023-12-22T12:47:22;94937.19;;;5.80;100.00
65614;BME280;52283;49.292;10.572;2023-12-22T12:49:56;94925.59;;;5.82;100.00
65614;BME280;52283;49.292;10.572;2023-12-22T12:52:24;94944.00;;;5.91;100.00